createdAt,value
2017-05-21T00:00:51.353Z,1020.55
2017-05-21T00:02:01.898Z,1020.52
2017-05-21T00:03:11.641Z,1020.5
2017-05-21T00:04:21.929Z,1020.5
2017-05-21T00:05:32.209Z,1020.56
2017-05-21T00:06:42.559Z,1020.52
2017-05-21T00:07:52.784Z,1020.5
2017-05-21T00:09:03.070Z,1020.54
2017-05-21T00:10:13.353Z,1020.58
2017-05-21T00:11:23.631Z,1020.56
2017-05-21T00:12:33.971Z,1020.58
2017-05-21T00:13:44.512Z,1020.54
2017-05-21T00:14:54.794Z,1020.54
2017-05-21T00:16:05.077Z,1020.54
2017-05-21T00:17:15.361Z,1020.55
2017-05-21T00:18:25.646Z,1020.57
2017-05-21T00:19:36.212Z,1020.57
2017-05-21T00:20:46.624Z,1020.58
2017-05-21T00:21:56.666Z,1020.58
2017-05-21T00:23:06.948Z,1020.57
2017-05-21T00:24:17.534Z,1020.56
2017-05-21T00:25:28.080Z,1020.57
2017-05-21T00:26:38.364Z,1020.57
2017-05-21T00:27:48.351Z,1020.58
2017-05-21T00:28:58.629Z,1020.58
2017-05-21T00:30:08.598Z,1020.54
2017-05-21T00:31:18.502Z,1020.58
2017-05-21T00:32:28.482Z,1020.58
2017-05-21T00:33:38.762Z,1020.62
2017-05-21T00:34:49.049Z,1020.61
2017-05-21T00:35:59.024Z,1020.62
2017-05-21T00:37:09.251Z,1020.63
2017-05-21T00:38:19.530Z,1020.58
2017-05-21T00:39:29.810Z,1020.58
2017-05-21T00:40:39.794Z,1020.59
2017-05-21T00:41:50.076Z,1020.57
2017-05-21T00:43:00.602Z,1020.61
2017-05-21T00:44:10.888Z,1020.57
2017-05-21T00:45:20.648Z,1020.63
2017-05-21T00:46:30.614Z,1020.61
2017-05-21T00:47:40.595Z,1020.62
2017-05-21T00:48:51.183Z,1020.6
2017-05-21T00:50:01.469Z,1020.59
2017-05-21T00:51:11.747Z,1020.6
2017-05-21T00:52:22.023Z,1020.58
2017-05-21T00:53:31.682Z,1020.68
2017-05-21T00:54:41.914Z,1020.73
2017-05-21T00:55:51.883Z,1020.68
2017-05-21T00:57:02.166Z,1020.68
2017-05-21T00:58:12.447Z,1020.68
2017-05-21T00:59:22.787Z,1020.67
2017-05-21T01:00:33.014Z,1020.65
2017-05-21T01:01:43.292Z,1020.64
2017-05-21T01:02:53.252Z,1020.64
2017-05-21T01:04:03.222Z,1020.66
2017-05-21T01:05:13.502Z,1020.66
2017-05-21T01:06:24.033Z,1020.74
2017-05-21T01:07:34.451Z,1020.74
2017-05-21T01:08:44.437Z,1020.67
2017-05-21T01:09:54.109Z,1020.65
2017-05-21T01:11:04.392Z,1020.72
2017-05-21T01:12:14.915Z,1020.74
2017-05-21T01:13:25.192Z,1020.74
2017-05-21T01:14:35.165Z,1020.74
2017-05-21T01:15:45.449Z,1020.74
2017-05-21T01:16:55.727Z,1020.73
2017-05-21T01:18:06.262Z,1020.75
2017-05-21T01:19:16.537Z,1020.73
2017-05-21T01:20:26.828Z,1020.77
2017-05-21T01:21:37.109Z,1020.75
2017-05-21T01:22:47.411Z,1020.76
2017-05-21T01:23:57.935Z,1020.79
2017-05-21T01:25:08.211Z,1020.77
2017-05-21T01:26:18.598Z,1020.77
2017-05-21T01:27:28.872Z,1020.77
2017-05-21T01:28:39.159Z,1020.79
2017-05-21T01:29:49.381Z,1020.79
2017-05-21T01:30:59.682Z,1020.81
2017-05-21T01:32:09.956Z,1020.8
2017-05-21T01:33:20.243Z,1020.78
2017-05-21T01:34:30.215Z,1020.77
2017-05-21T01:35:40.745Z,1020.78
2017-05-21T01:36:51.026Z,1020.79
2017-05-21T01:38:01.309Z,1020.77
2017-05-21T01:39:11.593Z,1020.76
2017-05-21T01:40:21.583Z,1020.81
2017-05-21T01:41:32.124Z,1020.79
2017-05-21T01:42:42.091Z,1020.81
2017-05-21T01:43:52.380Z,1020.81
2017-05-21T01:45:02.910Z,1020.82
2017-05-21T01:46:13.190Z,1020.8
2017-05-21T01:47:23.424Z,1020.81
2017-05-21T01:48:33.391Z,1020.84
2017-05-21T01:49:43.363Z,1020.83
2017-05-21T01:50:53.650Z,1020.78
2017-05-21T01:52:03.938Z,1020.79
2017-05-21T01:53:14.158Z,1020.78
2017-05-21T01:54:24.441Z,1020.8
2017-05-21T01:55:34.720Z,1020.8
2017-05-21T01:56:45.003Z,1020.81
2017-05-21T01:57:55.279Z,1020.83
2017-05-21T01:59:05.818Z,1020.82
2017-05-21T02:00:16.104Z,1020.8
2017-05-21T02:01:26.397Z,1020.83
2017-05-21T02:02:36.362Z,1020.84
2017-05-21T02:03:46.344Z,1020.87
2017-05-21T02:04:56.877Z,1020.86
2017-05-21T02:06:07.160Z,1020.81
2017-05-21T02:07:17.436Z,1020.81
2017-05-21T02:08:27.719Z,1020.86
2017-05-21T02:09:38.005Z,1020.84
2017-05-21T02:10:48.219Z,1020.86
2017-05-21T02:11:58.496Z,1020.82
2017-05-21T02:13:08.458Z,1020.87
2017-05-21T02:14:18.450Z,1020.89
2017-05-21T02:15:28.732Z,1020.88
2017-05-21T02:16:38.953Z,1020.89
2017-05-21T02:17:49.229Z,1020.85
2017-05-21T02:18:59.196Z,1020.89
2017-05-21T02:20:08.555Z,1020.87
2017-05-21T02:21:18.209Z,1020.83
2017-05-21T02:22:28.747Z,1020.84
2017-05-21T02:23:38.086Z,1020.83
2017-05-21T02:24:48.385Z,1020.83
2017-05-21T02:25:58.669Z,1020.83
2017-05-21T02:27:08.949Z,1020.87
2017-05-21T02:28:19.475Z,1020.84
2017-05-21T02:29:29.757Z,1020.84
2017-05-21T02:30:40.345Z,1020.82
2017-05-21T02:31:50.319Z,1020.82
2017-05-21T02:33:00.609Z,1020.81
2017-05-21T02:34:10.825Z,1020.83
2017-05-21T02:35:21.113Z,1020.88
2017-05-21T02:36:31.090Z,1020.83
2017-05-21T02:37:41.368Z,1020.81
2017-05-21T02:38:51.637Z,1020.82
2017-05-21T02:40:01.857Z,1020.83
2017-05-21T02:41:12.136Z,1020.82
2017-05-21T02:42:22.409Z,1020.83
2017-05-21T02:43:32.382Z,1020.85
2017-05-21T02:44:42.660Z,1020.86
2017-05-21T02:45:52.881Z,1020.88
2017-05-21T02:47:02.837Z,1020.88
2017-05-21T02:48:12.810Z,1020.89
2017-05-21T02:49:23.091Z,1020.9
2017-05-21T02:50:33.064Z,1020.88
2017-05-21T02:51:43.596Z,1020.93
2017-05-21T02:52:53.881Z,1020.99
2017-05-21T02:54:04.167Z,1021.05
2017-05-21T02:55:14.451Z,1021.02
2017-05-21T02:56:24.744Z,1021.07
2017-05-21T02:57:35.273Z,1021.07
2017-05-21T02:58:45.561Z,1021.09
2017-05-21T02:59:55.547Z,1021.11
2017-05-21T03:01:05.515Z,1021.09
2017-05-21T03:02:15.799Z,1021.13
2017-05-21T03:03:26.332Z,1021.14
2017-05-21T03:04:36.308Z,1021.09
2017-05-21T03:05:46.283Z,1021.12
2017-05-21T03:06:56.257Z,1021.07
2017-05-21T03:08:06.236Z,1021.12
2017-05-21T03:09:16.764Z,1021.09
2017-05-21T03:10:26.751Z,1021.16
2017-05-21T03:11:36.720Z,1021.17
2017-05-21T03:12:47.025Z,1021.17
2017-05-21T03:13:57.308Z,1021.17
2017-05-21T03:15:07.839Z,1021.14
2017-05-21T03:16:18.119Z,1021.15
2017-05-21T03:17:28.400Z,1021.13
2017-05-21T03:18:38.685Z,1021.18
2017-05-21T03:19:48.971Z,1021.23
2017-05-21T03:20:59.513Z,1021.13
2017-05-21T03:22:09.541Z,1021.12
2017-05-21T03:23:19.196Z,1021.16
2017-05-21T03:24:29.547Z,1021.12
2017-05-21T03:25:39.518Z,1021.17
2017-05-21T03:26:49.427Z,1021.17
2017-05-21T03:27:59.704Z,1021.2
2017-05-21T03:29:09.983Z,1021.18
2017-05-21T03:30:20.256Z,1021.18
2017-05-21T03:31:30.229Z,1021.18
2017-05-21T03:32:40.457Z,1021.22
2017-05-21T03:33:50.435Z,1021.2
2017-05-21T03:35:00.725Z,1021.19
2017-05-21T03:36:11.009Z,1021.18
2017-05-21T03:37:21.290Z,1021.21
2017-05-21T03:38:31.820Z,1021.19
2017-05-21T03:39:42.108Z,1021.18
2017-05-21T03:40:52.084Z,1021.23
2017-05-21T03:42:02.056Z,1021.2
2017-05-21T03:43:12.341Z,1021.23
2017-05-21T03:44:22.568Z,1021.2
2017-05-21T03:45:32.860Z,1021.22
2017-05-21T03:46:42.831Z,1021.2
2017-05-21T03:47:53.119Z,1021.21
2017-05-21T03:49:03.395Z,1021.21
2017-05-21T03:50:13.937Z,1021.21
2017-05-21T03:51:24.214Z,1021.21
2017-05-21T03:52:34.501Z,1021.2
2017-05-21T03:53:44.464Z,1021.22
2017-05-21T03:54:54.442Z,1021.18
2017-05-21T03:56:04.658Z,1021.19
2017-05-21T03:57:14.939Z,1021.18
2017-05-21T03:58:25.227Z,1021.2
2017-05-21T03:59:35.522Z,1021.22
2017-05-21T04:00:45.511Z,1021.23
2017-05-21T04:01:55.776Z,1021.21
2017-05-21T04:03:06.053Z,1021.23
2017-05-21T04:04:16.344Z,1021.26
2017-05-21T04:05:26.627Z,1021.25
2017-05-21T04:06:36.594Z,1021.28
2017-05-21T04:07:47.122Z,1021.3
2017-05-21T04:08:57.090Z,1021.29
2017-05-21T04:10:07.372Z,1021.32
2017-05-21T04:11:17.650Z,1021.34
2017-05-21T04:12:27.930Z,1021.33
2017-05-21T04:13:38.461Z,1021.34
2017-05-21T04:14:48.745Z,1021.33
2017-05-21T04:15:59.032Z,1021.38
2017-05-21T04:17:09.010Z,1021.4
2017-05-21T04:18:18.973Z,1021.4
2017-05-21T04:19:29.506Z,1021.4
2017-05-21T04:20:39.470Z,1021.44
2017-05-21T04:21:49.755Z,1021.4
2017-05-21T04:23:00.030Z,1021.41
2017-05-21T04:24:10.317Z,1021.41
2017-05-21T04:25:20.855Z,1021.46
2017-05-21T04:26:31.134Z,1021.44
2017-05-21T04:27:41.409Z,1021.44
2017-05-21T04:28:51.390Z,1021.44
2017-05-21T04:30:01.379Z,1021.46
2017-05-21T04:31:11.927Z,1021.41
2017-05-21T04:32:22.198Z,1021.44
2017-05-21T04:33:32.483Z,1021.44
2017-05-21T04:34:42.796Z,1021.46
2017-05-21T04:35:52.769Z,1021.47
2017-05-21T04:37:03.303Z,1021.51
2017-05-21T04:38:13.272Z,1021.52
2017-05-21T04:39:23.563Z,1021.5
2017-05-21T04:40:33.850Z,1021.55
2017-05-21T04:41:44.194Z,1021.56
2017-05-21T04:42:54.418Z,1021.61
2017-05-21T04:44:04.699Z,1021.64
2017-05-21T04:45:14.972Z,1021.61
2017-05-21T04:46:25.256Z,1021.61
2017-05-21T04:47:34.915Z,1021.61
2017-05-21T04:48:45.151Z,1021.67
2017-05-21T04:49:55.434Z,1021.65
2017-05-21T04:51:05.406Z,1021.66
2017-05-21T04:52:15.737Z,1021.65
2017-05-21T04:53:25.407Z,1021.69
2017-05-21T04:54:35.950Z,1021.66
2017-05-21T04:55:46.227Z,1021.69
2017-05-21T04:56:56.199Z,1021.71
2017-05-21T04:58:06.488Z,1021.69
2017-05-21T04:59:16.774Z,1021.71
2017-05-21T05:00:26.997Z,1021.72
2017-05-21T05:01:37.272Z,1021.71
2017-05-21T05:02:47.248Z,1021.72
2017-05-21T05:03:57.226Z,1021.78
2017-05-21T05:05:07.512Z,1021.8
2017-05-21T05:06:17.423Z,1021.77
2017-05-21T05:07:27.702Z,1021.78
2017-05-21T05:08:37.680Z,1021.8
2017-05-21T05:09:47.965Z,1021.85
2017-05-21T05:10:58.245Z,1021.79
2017-05-21T05:12:08.778Z,1021.81
2017-05-21T05:13:19.053Z,1021.81
2017-05-21T05:14:29.333Z,1021.83
2017-05-21T05:15:39.604Z,1021.9
2017-05-21T05:16:49.260Z,1021.81
2017-05-21T05:17:59.483Z,1021.82
2017-05-21T05:19:09.459Z,1021.86
2017-05-21T05:20:19.738Z,1021.9
2017-05-21T05:21:30.033Z,1021.89
2017-05-21T05:22:40.309Z,1021.85
2017-05-21T05:23:50.537Z,1021.83
2017-05-21T05:25:00.823Z,1021.87
2017-05-21T05:26:10.792Z,1021.87
2017-05-21T05:27:20.776Z,1021.86
2017-05-21T05:28:31.054Z,1021.89
2017-05-21T05:29:41.587Z,1021.94
2017-05-21T05:30:51.868Z,1021.92
2017-05-21T05:32:01.542Z,1021.97
2017-05-21T05:33:11.829Z,1021.98
2017-05-21T05:34:22.118Z,1021.99
2017-05-21T05:35:32.652Z,1021.99
2017-05-21T05:36:42.932Z,1022.02
2017-05-21T05:37:53.216Z,1022
2017-05-21T05:39:03.516Z,1022.02
2017-05-21T05:40:13.495Z,1022.07
2017-05-21T05:41:24.020Z,1022
2017-05-21T05:42:34.309Z,1022.01
2017-05-21T05:43:44.600Z,1022.04
2017-05-21T05:44:54.879Z,1022.03
2017-05-21T05:46:05.165Z,1022.05
2017-05-21T05:47:15.700Z,1022.07
2017-05-21T05:48:25.988Z,1022.1
2017-05-21T05:49:36.193Z,1022.14
2017-05-21T05:50:46.497Z,1022.13
2017-05-21T05:51:56.790Z,1022.09
2017-05-21T05:53:07.343Z,1022.1
2017-05-21T05:54:17.624Z,1022.14
2017-05-21T05:55:27.908Z,1022.11
2017-05-21T05:56:38.218Z,1022.09
2017-05-21T05:57:48.507Z,1022.12
2017-05-21T05:58:59.050Z,1022.18
2017-05-21T06:00:09.036Z,1022.14
2017-05-21T06:01:18.999Z,1022.13
2017-05-21T06:02:29.288Z,1022.15
2017-05-21T06:03:39.584Z,1022.18
2017-05-21T06:04:50.178Z,1022.18
2017-05-21T06:06:00.145Z,1022.19
2017-05-21T06:07:10.129Z,1022.23
2017-05-21T06:08:19.806Z,1022.22
2017-05-21T06:09:29.784Z,1022.25
2017-05-21T06:10:40.339Z,1022.25
2017-05-21T06:11:50.622Z,1022.27
2017-05-21T06:13:00.918Z,1022.31
2017-05-21T06:14:11.208Z,1022.31
2017-05-21T06:15:21.509Z,1022.34
2017-05-21T06:16:32.034Z,1022.3
2017-05-21T06:17:42.007Z,1022.3
2017-05-21T06:18:52.299Z,1022.32
2017-05-21T06:20:02.273Z,1022.34
2017-05-21T06:21:12.247Z,1022.36
2017-05-21T06:22:22.776Z,1022.36
2017-05-21T06:23:32.758Z,1022.36
2017-05-21T06:24:42.747Z,1022.41
2017-05-21T06:25:52.729Z,1022.4
2017-05-21T06:27:03.008Z,1022.44
2017-05-21T06:28:13.240Z,1022.41
2017-05-21T06:29:23.531Z,1022.43
2017-05-21T06:30:33.815Z,1022.44
2017-05-21T06:31:44.170Z,1022.46
2017-05-21T06:32:53.825Z,1022.47
2017-05-21T06:34:04.388Z,1022.45
2017-05-21T06:35:14.670Z,1022.44
2017-05-21T06:36:24.944Z,1022.42
2017-05-21T06:37:34.922Z,1022.46
2017-05-21T06:38:44.585Z,1022.44
2017-05-21T06:39:54.804Z,1022.42
2017-05-21T06:41:04.784Z,1022.44
2017-05-21T06:42:14.764Z,1022.42
2017-05-21T06:43:25.154Z,1022.4
2017-05-21T06:44:35.495Z,1022.4
2017-05-21T06:45:45.735Z,1022.43
2017-05-21T06:46:55.396Z,1022.42
2017-05-21T06:48:05.690Z,1022.39
2017-05-21T06:49:15.999Z,1022.39
2017-05-21T06:50:26.287Z,1022.42
2017-05-21T06:51:36.835Z,1022.4
2017-05-21T06:52:47.119Z,1022.45
2017-05-21T06:53:57.111Z,1022.45
2017-05-21T06:55:07.417Z,1022.45
2017-05-21T06:56:17.078Z,1022.47
2017-05-21T06:57:27.663Z,1022.46
2017-05-21T06:58:37.952Z,1022.46
2017-05-21T06:59:48.245Z,1022.48
2017-05-21T07:00:58.206Z,1022.49
2017-05-21T07:02:08.508Z,1022.49
2017-05-21T07:03:18.743Z,1022.49
2017-05-21T07:04:29.029Z,1022.51
2017-05-21T07:05:39.314Z,1022.48
2017-05-21T07:06:49.283Z,1022.54
2017-05-21T07:07:59.569Z,1022.59
2017-05-21T07:09:09.800Z,1022.56
2017-05-21T07:10:19.783Z,1022.58
2017-05-21T07:11:30.072Z,1022.58
2017-05-21T07:12:40.044Z,1022.57
2017-05-21T07:13:50.332Z,1022.55
2017-05-21T07:15:00.888Z,1022.58
2017-05-21T07:16:11.196Z,1022.62
2017-05-21T07:17:21.479Z,1022.61
2017-05-21T07:18:31.831Z,1022.58
2017-05-21T07:19:41.823Z,1022.6
2017-05-21T07:20:52.358Z,1022.62
2017-05-21T07:22:02.336Z,1022.62
2017-05-21T07:23:12.623Z,1022.62
2017-05-21T07:24:22.600Z,1022.62
2017-05-21T07:25:32.891Z,1022.61
2017-05-21T07:26:43.426Z,1022.64
2017-05-21T07:27:53.391Z,1022.6
2017-05-21T07:29:03.679Z,1022.65
2017-05-21T07:30:13.969Z,1022.64
2017-05-21T07:31:24.250Z,1022.6
2017-05-21T07:32:34.799Z,1022.64
2017-05-21T07:33:44.777Z,1022.63
2017-05-21T07:34:54.446Z,1022.64
2017-05-21T07:36:04.755Z,1022.63
2017-05-21T07:37:14.735Z,1022.66
2017-05-21T07:38:25.268Z,1022.65
2017-05-21T07:39:35.560Z,1022.64
2017-05-21T07:40:45.845Z,1022.65
2017-05-21T07:41:56.130Z,1022.64
2017-05-21T07:43:06.429Z,1022.59
2017-05-21T07:44:16.977Z,1022.61
2017-05-21T07:45:27.277Z,1022.6
2017-05-21T07:46:37.251Z,1022.64
2017-05-21T07:47:46.928Z,1022.59
2017-05-21T07:48:57.241Z,1022.65
2017-05-21T07:50:07.464Z,1022.63
2017-05-21T07:51:17.737Z,1022.65
2017-05-21T07:52:28.025Z,1022.66
2017-05-21T07:53:38.313Z,1022.63
2017-05-21T07:54:48.290Z,1022.63
2017-05-21T07:55:58.521Z,1022.67
2017-05-21T07:57:08.810Z,1022.65
2017-05-21T07:58:19.098Z,1022.67
2017-05-21T07:59:29.381Z,1022.71
2017-05-21T08:00:39.667Z,1022.73
2017-05-21T08:01:49.888Z,1022.75
2017-05-21T08:03:00.176Z,1022.7
2017-05-21T08:04:10.464Z,1022.69
2017-05-21T08:05:20.758Z,1022.72
2017-05-21T08:06:31.033Z,1022.68
2017-05-21T08:07:41.571Z,1022.7
2017-05-21T08:08:51.856Z,1022.7
2017-05-21T08:10:02.140Z,1022.71
2017-05-21T08:11:12.122Z,1022.7
2017-05-21T08:12:22.101Z,1022.66
2017-05-21T08:13:32.634Z,1022.66
2017-05-21T08:14:42.308Z,1022.7
2017-05-21T08:15:52.284Z,1022.67
2017-05-21T08:17:02.266Z,1022.67
2017-05-21T08:18:12.556Z,1022.67
2017-05-21T08:19:23.149Z,1022.67
2017-05-21T08:20:33.129Z,1022.73
2017-05-21T08:21:43.154Z,1022.7
2017-05-21T08:22:53.448Z,1022.7
2017-05-21T08:24:03.434Z,1022.69
2017-05-21T08:25:13.658Z,1022.71
2017-05-21T08:26:23.940Z,1022.71
2017-05-21T08:27:34.226Z,1022.69
2017-05-21T08:28:44.531Z,1022.66
2017-05-21T08:29:54.822Z,1022.72
2017-05-21T08:31:05.377Z,1022.71
2017-05-21T08:32:15.673Z,1022.7
2017-05-21T08:33:25.373Z,1022.72
2017-05-21T08:34:35.379Z,1022.73
2017-05-21T08:35:45.656Z,1022.7
2017-05-21T08:36:56.195Z,1022.73
2017-05-21T08:38:06.491Z,1022.72
2017-05-21T08:39:16.466Z,1022.72
2017-05-21T08:40:26.761Z,1022.72
2017-05-21T08:41:36.420Z,1022.71
2017-05-21T08:42:46.655Z,1022.71
2017-05-21T08:43:56.640Z,1022.73
2017-05-21T08:45:06.936Z,1022.69
2017-05-21T08:46:17.228Z,1022.71
2017-05-21T08:47:27.517Z,1022.76
2017-05-21T08:48:38.055Z,1022.76
2017-05-21T08:49:48.361Z,1022.72
2017-05-21T08:50:58.355Z,1022.66
2017-05-21T08:52:08.651Z,1022.72
2017-05-21T08:53:18.621Z,1022.69
2017-05-21T08:54:28.852Z,1022.65
2017-05-21T08:55:39.136Z,1022.72
2017-05-21T08:56:49.437Z,1022.74
2017-05-21T08:57:59.729Z,1022.76
2017-05-21T08:59:10.024Z,1022.75
2017-05-21T09:00:20.569Z,1022.72
2017-05-21T09:01:30.848Z,1022.68
2017-05-21T09:02:41.144Z,1022.68
2017-05-21T09:03:51.433Z,1022.66
2017-05-21T09:05:01.734Z,1022.62
2017-05-21T09:06:12.273Z,1022.66
2017-05-21T09:07:22.555Z,1022.65
2017-05-21T09:08:32.530Z,1022.65
2017-05-21T09:09:42.505Z,1022.59
2017-05-21T09:10:52.792Z,1022.64
2017-05-21T09:12:03.332Z,1022.65
2017-05-21T09:13:13.304Z,1022.62
2017-05-21T09:14:22.978Z,1022.63
2017-05-21T09:15:33.292Z,1022.66
2017-05-21T09:16:43.592Z,1022.65
2017-05-21T09:17:54.120Z,1022.68
2017-05-21T09:19:04.417Z,1022.65
2017-05-21T09:20:14.709Z,1022.64
2017-05-21T09:21:25.002Z,1022.63
2017-05-21T09:22:35.289Z,1022.63
2017-05-21T09:23:45.848Z,1022.66
2017-05-21T09:24:56.139Z,1022.66
2017-05-21T09:26:05.801Z,1022.65
2017-05-21T09:27:16.093Z,1022.68
2017-05-21T09:28:26.384Z,1022.67
2017-05-21T09:29:36.625Z,1022.65
2017-05-21T09:30:46.912Z,1022.61
2017-05-21T09:31:57.202Z,1022.68
2017-05-21T09:33:07.488Z,1022.63
2017-05-21T09:34:17.793Z,1022.63
2017-05-21T09:35:28.336Z,1022.64
2017-05-21T09:36:38.617Z,1022.63
2017-05-21T09:37:48.586Z,1022.62
2017-05-21T09:38:58.871Z,1022.64
2017-05-21T09:40:09.158Z,1022.59
2017-05-21T09:41:19.380Z,1022.62
2017-05-21T09:42:29.673Z,1022.61
2017-05-21T09:43:39.655Z,1022.64
2017-05-21T09:44:49.633Z,1022.59
2017-05-21T09:45:59.614Z,1022.64
2017-05-21T09:47:09.845Z,1022.57
2017-05-21T09:48:20.128Z,1022.57
2017-05-21T09:49:30.414Z,1022.57
2017-05-21T09:50:40.697Z,1022.61
2017-05-21T09:51:50.975Z,1022.54
2017-05-21T09:53:00.883Z,1022.57
2017-05-21T09:54:11.181Z,1022.58
2017-05-21T09:55:21.161Z,1022.57
2017-05-21T09:56:31.446Z,1022.6
2017-05-21T09:57:41.733Z,1022.58
2017-05-21T09:58:52.279Z,1022.55
2017-05-21T10:00:02.259Z,1022.57
2017-05-21T10:01:12.235Z,1022.57
2017-05-21T10:02:22.206Z,1022.58
2017-05-21T10:03:32.506Z,1022.53
2017-05-21T10:04:43.045Z,1022.51
2017-05-21T10:05:53.027Z,1022.53
2017-05-21T10:07:03.297Z,1022.49
2017-05-21T10:08:13.281Z,1022.53
2017-05-21T10:09:23.601Z,1022.52
2017-05-21T10:10:34.160Z,1022.52
2017-05-21T10:11:44.456Z,1022.52
2017-05-21T10:12:54.147Z,1022.51
2017-05-21T10:14:04.142Z,1022.56
2017-05-21T10:15:14.111Z,1022.53
2017-05-21T10:16:24.645Z,1022.52
2017-05-21T10:17:34.631Z,1022.49
2017-05-21T10:18:44.611Z,1022.47
2017-05-21T10:19:54.592Z,1022.46
2017-05-21T10:21:04.876Z,1022.5
2017-05-21T10:22:15.418Z,1022.49
2017-05-21T10:23:25.399Z,1022.49
2017-05-21T10:24:35.703Z,1022.49
2017-05-21T10:25:45.981Z,1022.46
2017-05-21T10:26:56.270Z,1022.44
2017-05-21T10:28:06.206Z,1022.49
2017-05-21T10:29:16.511Z,1022.5
2017-05-21T10:30:26.489Z,1022.51
2017-05-21T10:31:36.850Z,1022.51
2017-05-21T10:32:47.144Z,1022.46
2017-05-21T10:33:57.688Z,1022.44
2017-05-21T10:35:07.983Z,1022.4
2017-05-21T10:36:17.984Z,1022.42
2017-05-21T10:37:27.652Z,1022.38
2017-05-21T10:38:37.953Z,1022.34
2017-05-21T10:39:47.952Z,1022.38
2017-05-21T10:40:58.248Z,1022.29
2017-05-21T10:42:08.555Z,1022.3
2017-05-21T10:43:18.850Z,1022.3
2017-05-21T10:44:29.156Z,1022.26
2017-05-21T10:45:39.690Z,1022.27
2017-05-21T10:46:49.993Z,1022.26
2017-05-21T10:48:00.270Z,1022.28
2017-05-21T10:49:10.554Z,1022.26
2017-05-21T10:50:20.538Z,1022.22
2017-05-21T10:51:31.074Z,1022.23
2017-05-21T10:52:41.360Z,1022.23
2017-05-21T10:53:51.331Z,1022.24
2017-05-21T10:55:01.024Z,1022.23
2017-05-21T10:56:11.009Z,1022.24
2017-05-21T10:57:21.539Z,1022.24
2017-05-21T10:58:31.197Z,1022.15
2017-05-21T10:59:41.177Z,1022.17
2017-05-21T11:00:51.518Z,1022.21
2017-05-21T11:02:01.800Z,1022.13
2017-05-21T11:03:12.341Z,1022.16
2017-05-21T11:04:22.618Z,1022.13
2017-05-21T11:05:32.928Z,1022.12
2017-05-21T11:06:43.214Z,1022.08
2017-05-21T11:07:53.502Z,1022.08
2017-05-21T11:09:04.044Z,1022.08
2017-05-21T11:10:14.332Z,1022.07
2017-05-21T11:11:24.005Z,1022.05
2017-05-21T11:12:34.291Z,1022.08
2017-05-21T11:13:44.572Z,1022.07
2017-05-21T11:14:55.126Z,1022.05
2017-05-21T11:16:05.437Z,1022.09
2017-05-21T11:17:15.741Z,1022
2017-05-21T11:18:26.039Z,1022.01
2017-05-21T11:19:36.324Z,1022.03
2017-05-21T11:20:46.545Z,1022
2017-05-21T11:21:56.834Z,1022.02
2017-05-21T11:23:07.113Z,1022.05
2017-05-21T11:24:17.405Z,1022.04
2017-05-21T11:25:27.704Z,1021.96
2017-05-21T11:26:38.252Z,1021.98
2017-05-21T11:27:48.537Z,1021.96
2017-05-21T11:28:58.530Z,1021.94
2017-05-21T11:30:08.829Z,1021.93
2017-05-21T11:31:18.804Z,1021.84
2017-05-21T11:32:29.023Z,1021.84
2017-05-21T11:33:38.995Z,1021.86
2017-05-21T11:34:49.283Z,1021.82
2017-05-21T11:35:58.946Z,1021.76
2017-05-21T11:37:09.231Z,1021.81
2017-05-21T11:38:19.773Z,1021.82
2017-05-21T11:39:30.061Z,1021.84
2017-05-21T11:40:40.385Z,1021.86
2017-05-21T11:41:50.429Z,1021.82
2017-05-21T11:43:00.086Z,1021.8
2017-05-21T11:44:10.319Z,1021.81
2017-05-21T11:45:20.608Z,1021.78
2017-05-21T11:46:30.908Z,1021.75
2017-05-21T11:47:40.579Z,1021.74
2017-05-21T11:48:50.876Z,1021.74
2017-05-21T11:50:01.421Z,1021.75
2017-05-21T11:51:11.707Z,1021.74
2017-05-21T11:52:21.989Z,1021.72
2017-05-21T11:53:32.281Z,1021.73
2017-05-21T11:54:42.642Z,1021.74
2017-05-21T11:55:53.176Z,1021.74
2017-05-21T11:57:03.463Z,1021.78
2017-05-21T11:58:13.435Z,1021.76
2017-05-21T11:59:23.438Z,1021.72
2017-05-21T12:00:33.405Z,1021.72
2017-05-21T12:01:43.628Z,1021.73
2017-05-21T12:02:53.307Z,1021.74
2017-05-21T12:04:03.276Z,1021.75
2017-05-21T12:05:13.260Z,1021.75
2017-05-21T12:06:23.613Z,1021.76
2017-05-21T12:07:34.168Z,1021.75
2017-05-21T12:08:44.151Z,1021.78
2017-05-21T12:09:54.456Z,1021.77
2017-05-21T12:11:04.743Z,1021.77
2017-05-21T12:12:14.741Z,1021.78
2017-05-21T12:13:25.271Z,1021.72
2017-05-21T12:14:35.561Z,1021.76
2017-05-21T12:15:45.225Z,1021.71
2017-05-21T12:16:55.524Z,1021.69
2017-05-21T12:18:05.509Z,1021.74
2017-05-21T12:19:16.062Z,1021.67
2017-05-21T12:20:26.347Z,1021.72
2017-05-21T12:21:36.635Z,1021.68
2017-05-21T12:22:46.920Z,1021.72
2017-05-21T12:23:57.205Z,1021.71
2017-05-21T12:25:07.751Z,1021.63
2017-05-21T12:26:18.040Z,1021.68
2017-05-21T12:27:28.098Z,1021.69
2017-05-21T12:28:37.770Z,1021.66
2017-05-21T12:29:48.069Z,1021.69
2017-05-21T12:30:58.608Z,1021.66
2017-05-21T12:32:08.899Z,1021.67
2017-05-21T12:33:18.882Z,1021.69
2017-05-21T12:34:29.166Z,1021.69
2017-05-21T12:35:39.481Z,1021.64
2017-05-21T12:36:49.713Z,1021.6
2017-05-21T12:37:59.685Z,1021.6
2017-05-21T12:39:09.674Z,1021.61
2017-05-21T12:40:19.981Z,1021.57
2017-05-21T12:41:30.303Z,1021.58
2017-05-21T12:42:40.529Z,1021.55
2017-05-21T12:43:50.508Z,1021.59
2017-05-21T12:45:00.799Z,1021.56
2017-05-21T12:46:11.097Z,1021.56
2017-05-21T12:47:21.079Z,1021.59
2017-05-21T12:48:31.625Z,1021.56
2017-05-21T12:49:41.919Z,1021.6
2017-05-21T12:50:51.586Z,1021.56
2017-05-21T12:52:01.886Z,1021.62
2017-05-21T12:53:12.180Z,1021.62
2017-05-21T12:54:22.731Z,1021.59
2017-05-21T12:55:32.716Z,1021.54
2017-05-21T12:56:42.995Z,1021.57
2017-05-21T12:57:53.285Z,1021.58
2017-05-21T12:59:03.572Z,1021.54
2017-05-21T13:00:14.121Z,1021.51
2017-05-21T13:01:24.104Z,1021.56
2017-05-21T13:02:34.401Z,1021.47
2017-05-21T13:03:44.701Z,1021.48
2017-05-21T13:04:54.683Z,1021.49
2017-05-21T13:06:05.233Z,1021.51
2017-05-21T13:07:14.900Z,1021.48
2017-05-21T13:08:25.199Z,1021.51
2017-05-21T13:09:35.173Z,1021.53
2017-05-21T13:10:45.174Z,1021.51
2017-05-21T13:11:55.412Z,1021.49
2017-05-21T13:13:05.398Z,1021.49
2017-05-21T13:14:15.684Z,1021.53
2017-05-21T13:15:25.680Z,1021.53
2017-05-21T13:16:35.967Z,1021.53
2017-05-21T13:17:46.497Z,1021.48
2017-05-21T13:18:56.793Z,1021.39
2017-05-21T13:20:07.105Z,1021.41
2017-05-21T13:21:17.083Z,1021.38
2017-05-21T13:22:27.376Z,1021.4
2017-05-21T13:23:38.356Z,1021.36
2017-05-21T13:24:48.634Z,1021.32
2017-05-21T13:25:58.944Z,1021.35
2017-05-21T13:27:08.292Z,1021.35
2017-05-21T13:28:18.289Z,1021.37
2017-05-21T13:29:28.528Z,1021.35
2017-05-21T13:30:38.512Z,1021.37
2017-05-21T13:31:48.834Z,1021.41
2017-05-21T13:32:59.134Z,1021.4
2017-05-21T13:34:09.427Z,1021.35
2017-05-21T13:35:19.966Z,1021.37
2017-05-21T13:36:30.256Z,1021.31
2017-05-21T13:37:40.544Z,1021.29
2017-05-21T13:38:50.838Z,1021.26
2017-05-21T13:40:01.113Z,1021.24
2017-05-21T13:41:11.679Z,1021.25
2017-05-21T13:42:21.661Z,1021.24
2017-05-21T13:43:31.631Z,1021.34
2017-05-21T13:44:41.937Z,1021.35
2017-05-21T13:45:51.914Z,1021.33
2017-05-21T13:47:02.452Z,1021.32
2017-05-21T13:48:12.421Z,1021.28
2017-05-21T13:49:22.718Z,1021.31
2017-05-21T13:50:32.702Z,1021.33
2017-05-21T13:51:42.984Z,1021.29
2017-05-21T13:52:53.210Z,1021.24
2017-05-21T13:54:03.500Z,1021.24
2017-05-21T13:55:13.177Z,1021.28
2017-05-21T13:56:23.471Z,1021.27
2017-05-21T13:57:33.465Z,1021.25
2017-05-21T13:58:44.007Z,1021.29
2017-05-21T13:59:53.981Z,1021.32
2017-05-21T14:01:04.274Z,1021.32
2017-05-21T14:02:14.271Z,1021.28
2017-05-21T14:03:24.577Z,1021.27
2017-05-21T14:04:35.117Z,1021.22
2017-05-21T14:05:45.407Z,1021.25
2017-05-21T14:06:55.696Z,1021.24
2017-05-21T14:08:06.035Z,1021.23
2017-05-21T14:09:16.011Z,1021.27
2017-05-21T14:10:26.573Z,1021.27
2017-05-21T14:11:36.538Z,1021.25
2017-05-21T14:12:46.821Z,1021.21